createdAt,value
2018-07-04T00:00:06.439Z,101244.50
2018-07-04T00:03:47.646Z,101247.72
2018-07-04T00:07:29.027Z,101246.32
2018-07-04T00:11:10.490Z,101245.41
2018-07-04T00:14:51.941Z,101247.48
2018-07-04T00:18:33.079Z,101247.73
2018-07-04T00:22:08.372Z,101244.59
2018-07-04T00:25:49.882Z,101255.58
2018-07-04T00:29:31.257Z,101254.66
2018-07-04T00:33:12.758Z,101251.77
2018-07-04T00:36:54.703Z,101248.72
2018-07-04T00:40:36.224Z,101243.69
2018-07-04T00:44:17.606Z,101238.55
2018-07-04T00:47:58.893Z,101242.91
2018-07-04T00:51:40.116Z,101238.03
2018-07-04T00:55:21.367Z,101227.80
2018-07-04T00:59:02.787Z,101224.67
2018-07-04T01:02:44.180Z,101221.66
2018-07-04T01:06:25.620Z,101214.81
2018-07-04T01:10:07.138Z,101213.98
2018-07-04T01:13:48.512Z,101218.86
2018-07-04T01:17:30.006Z,101202.41
2018-07-04T01:21:14.128Z,101205.74
2018-07-04T01:24:55.364Z,101198.86
2018-07-04T01:28:41.930Z,101199.61
2018-07-04T01:32:23.522Z,101200.30
2018-07-04T01:36:04.718Z,101195.83
2018-07-04T01:39:45.999Z,101195.87
2018-07-04T01:43:27.335Z,101188.25
2018-07-04T01:47:08.756Z,101190.89
2018-07-04T01:50:50.026Z,101188.81
2018-07-04T01:54:31.384Z,101181.26
2018-07-04T01:58:12.872Z,101173.01
2018-07-04T02:01:54.106Z,101183.69
2018-07-04T02:05:35.210Z,101177.15
2018-07-04T02:09:16.351Z,101173.02
2018-07-04T02:12:57.812Z,101174.56
2018-07-04T02:16:39.222Z,101169.77
2018-07-04T02:20:14.615Z,101177.00
2018-07-04T02:23:56.173Z,101173.41
2018-07-04T02:27:37.542Z,101175.48
2018-07-04T02:31:18.883Z,101177.36
2018-07-04T02:35:00.518Z,101177.32
2018-07-04T02:38:41.940Z,101176.64
2018-07-04T02:42:23.174Z,101181.95
2018-07-04T02:46:04.304Z,101179.52
2018-07-04T02:49:45.984Z,101178.16
2018-07-04T02:53:27.168Z,101177.30
2018-07-04T02:57:08.340Z,101169.41
2018-07-04T03:00:49.508Z,101171.77
2018-07-04T03:04:30.707Z,101172.79
2018-07-04T03:08:12.116Z,101172.63
2018-07-04T03:11:53.761Z,101175.55
2018-07-04T03:15:35.096Z,101170.56
2018-07-04T03:19:17.130Z,101170.91
2018-07-04T03:22:58.532Z,101173.50
2018-07-04T03:26:39.999Z,101173.33
2018-07-04T03:30:21.282Z,101165.95
2018-07-04T03:34:02.561Z,101165.25
2018-07-04T03:37:43.947Z,101165.08
2018-07-04T03:41:25.218Z,101159.93
2018-07-04T03:45:06.436Z,101159.59
2018-07-04T03:48:47.693Z,101156.52
2018-07-04T03:52:28.889Z,101154.04
2018-07-04T03:56:10.233Z,101155.95
2018-07-04T03:59:51.576Z,101155.19
2018-07-04T04:03:32.828Z,101152.71
2018-07-04T04:07:14.158Z,101158.92
2018-07-04T04:10:55.297Z,101157.14
2018-07-04T04:14:36.712Z,101150.14
2018-07-04T04:18:18.050Z,101154.09
2018-07-04T04:21:59.352Z,101157.09
2018-07-04T04:25:40.692Z,101161.44
2018-07-04T04:29:21.947Z,101164.08
2018-07-04T04:33:03.370Z,101171.30
2018-07-04T04:36:44.604Z,101173.70
2018-07-04T04:40:25.832Z,101179.89
2018-07-04T04:44:07.051Z,101179.05
2018-07-04T04:47:48.344Z,101181.84
2018-07-04T04:51:29.718Z,101177.34
2018-07-04T04:55:11.199Z,101173.07
2018-07-04T04:58:52.459Z,101168.75
2018-07-04T05:02:33.631Z,101166.51
2018-07-04T05:06:14.809Z,101175.94
2018-07-04T05:09:56.252Z,101166.28
2018-07-04T05:13:37.914Z,101168.53
2018-07-04T05:17:19.499Z,101172.09
2018-07-04T05:21:00.880Z,101171.23
2018-07-04T05:24:42.450Z,101176.04
2018-07-04T05:28:23.667Z,101162.27
2018-07-04T05:32:04.825Z,101161.50
2018-07-04T05:35:46.094Z,101160.23
2018-07-04T05:39:27.324Z,101154.10
2018-07-04T05:43:08.864Z,101158.24
2018-07-04T05:46:50.351Z,101150.29
2018-07-04T05:50:31.774Z,101152.48
2018-07-04T05:54:13.120Z,101156.92
2018-07-04T05:57:54.451Z,101149.61
2018-07-04T06:01:36.053Z,101152.66
2018-07-04T06:05:17.420Z,101150.97
2018-07-04T06:08:58.826Z,101143.22
2018-07-04T06:12:40.182Z,101154.45
2018-07-04T06:16:21.542Z,101154.20
2018-07-04T06:20:02.791Z,101152.00
2018-07-04T06:23:44.238Z,101147.67
2018-07-04T06:27:25.512Z,101148.47
2018-07-04T06:31:06.992Z,101149.19
2018-07-04T06:34:48.436Z,101147.33
2018-07-04T06:38:11.219Z,101155.14
2018-07-04T06:41:33.979Z,101151.78
2018-07-04T06:44:56.745Z,101155.53
2018-07-04T06:48:19.555Z,101153.30
2018-07-04T06:51:42.411Z,101153.45
2018-07-04T06:55:05.249Z,101147.27
2018-07-04T07:02:06.976Z,101145.70
2018-07-04T07:05:48.330Z,101150.81
2018-07-04T07:09:29.660Z,101157.68
2018-07-04T07:13:11.022Z,101161.73
2018-07-04T07:16:52.538Z,101154.12
2018-07-04T07:20:33.864Z,101161.02
2018-07-04T07:24:15.178Z,101158.17
2018-07-04T07:27:57.084Z,101153.58
2018-07-04T07:31:38.993Z,101152.72
2018-07-04T07:35:20.460Z,101158.30
2018-07-04T07:39:01.941Z,101156.93
2018-07-04T07:42:43.254Z,101154.22
2018-07-04T07:46:24.680Z,101144.03
2018-07-04T07:50:06.151Z,101136.91
2018-07-04T07:53:47.745Z,101137.40
2018-07-04T07:57:29.217Z,101133.25
2018-07-04T08:01:10.635Z,101134.19
2018-07-04T08:04:52.142Z,101127.27
2018-07-04T08:08:33.574Z,101119.14
2018-07-04T08:12:14.871Z,101119.60
2018-07-04T08:15:56.129Z,101123.50
2018-07-04T08:19:37.399Z,101124.57
2018-07-04T08:23:18.646Z,101124.52
2018-07-04T08:27:03.516Z,101121.94
2018-07-04T08:30:45.060Z,101131.56
2018-07-04T08:34:26.529Z,101127.73
2018-07-04T08:38:08.076Z,101132.08
2018-07-04T08:41:49.271Z,101129.22
2018-07-04T08:45:30.750Z,101131.69
2018-07-04T08:49:12.155Z,101133.80
2018-07-04T08:52:47.423Z,101128.71
2018-07-04T08:56:28.828Z,101126.22
2018-07-04T09:00:10.466Z,101127.47
2018-07-04T09:03:51.803Z,101133.59
2018-07-04T09:07:33.166Z,101134.79
2018-07-04T09:11:14.494Z,101131.30
2018-07-04T09:14:55.898Z,101137.50
2018-07-04T09:18:37.372Z,101133.97
2018-07-04T09:22:18.730Z,101135.53
2018-07-04T09:26:00.045Z,101134.95
2018-07-04T09:29:41.335Z,101139.05
2018-07-04T09:33:22.726Z,101143.13
2018-07-04T09:37:04.074Z,101139.05
2018-07-04T09:40:45.526Z,101150.72
2018-07-04T09:44:26.817Z,101148.31
2018-07-04T09:48:08.505Z,101159.80
2018-07-04T09:51:49.831Z,101156.35
2018-07-04T09:55:31.442Z,101158.25
2018-07-04T09:59:12.765Z,101161.61
2018-07-04T10:02:54.307Z,101163.47
2018-07-04T10:06:35.878Z,101164.28
2018-07-04T10:10:17.226Z,101151.11
2018-07-04T10:13:58.662Z,101158.80
2018-07-04T10:17:39.973Z,101154.17
2018-07-04T10:21:22.278Z,101154.09
2018-07-04T10:25:03.664Z,101155.37
2018-07-04T10:28:45.096Z,101154.77
2018-07-04T10:32:26.414Z,101145.86
2018-07-04T10:36:07.934Z,101141.65
2018-07-04T10:39:49.378Z,101140.84
2018-07-04T10:43:30.913Z,101136.48
2018-07-04T10:47:12.205Z,101136.44
2018-07-04T10:50:53.639Z,101132.88
2018-07-04T10:54:34.990Z,101123.40
2018-07-04T10:58:16.292Z,101132.83
2018-07-04T11:01:57.551Z,101119.83
2018-07-04T11:05:38.859Z,101118.05
2018-07-04T11:09:20.151Z,101102.20
2018-07-04T11:13:01.565Z,101101.47
2018-07-04T11:16:42.994Z,101099.45
2018-07-04T11:20:18.357Z,101097.90
2018-07-04T11:23:59.792Z,101094.35
2018-07-04T11:27:41.210Z,101080.74
2018-07-04T11:31:22.786Z,101078.43
2018-07-04T11:35:04.206Z,101078.48
2018-07-04T11:38:45.640Z,101081.58
2018-07-04T11:42:26.975Z,101078.72
2018-07-04T11:45:58.181Z,101076.35
2018-07-04T11:49:20.941Z,101081.86
2018-07-04T11:52:43.755Z,101079.94
2018-07-04T11:56:06.539Z,101095.03
2018-07-04T11:59:29.410Z,101093.84
2018-07-04T12:02:52.199Z,101095.13
2018-07-04T12:06:33.788Z,101086.15
2018-07-04T12:09:56.573Z,101095.03
2018-07-04T12:13:20.499Z,101090.20
2018-07-04T12:16:43.287Z,101104.05
2018-07-04T12:20:06.048Z,101102.17
2018-07-04T12:23:28.850Z,101094.95
2018-07-04T12:26:51.797Z,101093.79
2018-07-04T12:30:14.580Z,101096.41
2018-07-04T12:33:37.399Z,101103.98
2018-07-04T12:37:00.317Z,101091.35
2018-07-04T12:40:23.090Z,101101.55
2018-07-04T12:43:45.927Z,101106.11
2018-07-04T12:47:08.777Z,101103.94
2018-07-04T12:50:33.071Z,101097.72
2018-07-04T12:54:01.027Z,101107.12
2018-07-04T12:57:42.235Z,101100.98
2018-07-04T13:01:23.523Z,101095.56
2018-07-04T13:05:04.759Z,101101.75
2018-07-04T13:08:46.071Z,101086.91
2018-07-04T13:12:27.244Z,101086.56
2018-07-04T13:16:08.548Z,101080.34
2018-07-04T13:19:50.006Z,101087.57
2018-07-04T13:23:31.547Z,101090.91
2018-07-04T13:27:13.164Z,101099.48
2018-07-04T13:30:54.436Z,101091.45
2018-07-04T13:34:36.880Z,101089.70
2018-07-04T13:38:18.270Z,101086.08
2018-07-04T13:41:59.512Z,101086.89
2018-07-04T13:45:40.927Z,101092.38
2018-07-04T13:49:22.248Z,101092.75
2018-07-04T13:53:03.490Z,101087.84
2018-07-04T13:56:44.743Z,101093.39
2018-07-04T14:00:26.035Z,101089.74
2018-07-04T14:04:07.316Z,101096.31
2018-07-04T14:07:48.560Z,101092.29
2018-07-04T14:11:29.642Z,101085.14
2018-07-04T14:15:10.818Z,101086.75
2018-07-04T14:18:52.312Z,101081.88
2018-07-04T14:22:33.360Z,101085.69
2018-07-04T14:26:15.382Z,101078.53
2018-07-04T14:29:56.741Z,101082.78
2018-07-04T14:33:38.004Z,101080.19
2018-07-04T14:37:19.490Z,101076.28
2018-07-04T14:41:00.934Z,101075.28
2018-07-04T14:44:42.446Z,101074.83
2018-07-04T14:48:23.766Z,101068.66
2018-07-04T14:52:05.294Z,101063.69
2018-07-04T14:55:46.575Z,101060.55
2018-07-04T14:59:27.719Z,101059.27
2018-07-04T15:03:08.935Z,101049.26
2018-07-04T15:06:50.153Z,101047.85
2018-07-04T15:10:31.407Z,101040.61
2018-07-04T15:14:12.675Z,101040.44
2018-07-04T15:17:54.006Z,101036.59
2018-07-04T15:21:35.125Z,101033.11
2018-07-04T15:25:16.171Z,101037.27
2018-07-04T15:28:57.408Z,101031.92
2018-07-04T15:32:38.732Z,101025.78
2018-07-04T15:36:19.939Z,101021.56
2018-07-04T15:40:01.281Z,101022.94
2018-07-04T15:43:42.596Z,101024.19
2018-07-04T15:47:23.830Z,101018.20
2018-07-04T15:51:05.012Z,101015.63
2018-07-04T15:54:46.511Z,101020.08
2018-07-04T15:58:27.765Z,101013.78
2018-07-04T16:02:09.027Z,101009.08
2018-07-04T16:05:50.739Z,101009.97
2018-07-04T16:09:26.234Z,101017.58
2018-07-04T16:13:07.651Z,101015.73
2018-07-04T16:16:49.043Z,101021.76
2018-07-04T16:20:30.465Z,101009.64
2018-07-04T16:24:11.780Z,101012.86
2018-07-04T16:27:53.047Z,101007.13
2018-07-04T16:31:34.534Z,101000.21
2018-07-04T16:35:15.770Z,101009.84
2018-07-04T16:38:57.017Z,101011.40
2018-07-04T16:42:38.468Z,101011.40
2018-07-04T16:46:19.604Z,101005.72
2018-07-04T16:50:01.013Z,101010.23
2018-07-04T16:53:42.623Z,101013.91
2018-07-04T16:57:24.110Z,100998.09
2018-07-04T17:01:05.762Z,101000.55
2018-07-04T17:04:47.096Z,100992.66
2018-07-04T17:08:28.319Z,100981.20
2018-07-04T17:12:09.703Z,100984.66
2018-07-04T17:15:51.032Z,100978.30
2018-07-04T17:19:32.457Z,100973.69
2018-07-04T17:23:13.861Z,100974.34
2018-07-04T17:26:55.251Z,100972.20
2018-07-04T17:30:36.425Z,100961.45
2018-07-04T17:34:17.738Z,100954.76
2018-07-04T17:38:00.173Z,100959.45
2018-07-04T17:41:41.637Z,100957.53
2018-07-04T17:45:23.080Z,100952.09
2018-07-04T17:49:04.446Z,100951.88
2018-07-04T17:52:45.821Z,100958.25
2018-07-04T17:56:27.494Z,100954.42
2018-07-04T18:00:09.861Z,100958.19
2018-07-04T18:03:52.078Z,100959.81
2018-07-04T18:07:33.529Z,100956.97
2018-07-04T18:11:15.143Z,100954.94
2018-07-04T18:14:56.413Z,100951.03
2018-07-04T18:18:38.103Z,100947.09
2018-07-04T18:22:19.452Z,100951.45
2018-07-04T18:26:00.773Z,100953.91
2018-07-04T18:29:42.100Z,100953.09
2018-07-04T18:33:23.572Z,100968.52
2018-07-04T18:37:04.855Z,100972.60
2018-07-04T18:40:46.165Z,100970.25
2018-07-04T18:44:27.542Z,100979.58
2018-07-04T18:48:08.986Z,100979.68
2018-07-04T18:51:50.800Z,100975.06
2018-07-04T18:55:32.243Z,100968.30
2018-07-04T18:59:13.606Z,100972.75
2018-07-04T19:02:54.970Z,100964.52
2018-07-04T19:06:36.354Z,100975.20
2018-07-04T19:10:17.873Z,100978.03
2018-07-04T19:13:59.359Z,100974.01
2018-07-04T19:17:40.793Z,100963.50
2018-07-04T19:21:22.631Z,100964.97
2018-07-04T19:25:04.372Z,100977.23
2018-07-04T19:28:46.753Z,100982.17
2018-07-04T19:32:28.202Z,100989.01
2018-07-04T19:36:09.825Z,100994.48
2018-07-04T19:39:51.079Z,100993.39
2018-07-04T19:43:32.604Z,100995.63
2018-07-04T19:47:14.238Z,100997.66
2018-07-04T19:50:56.171Z,101001.59
2018-07-04T19:54:38.036Z,100997.23
2018-07-04T19:58:19.630Z,100992.72
2018-07-04T20:02:00.955Z,101002.41
2018-07-04T20:05:42.552Z,101000.33
2018-07-04T20:09:24.191Z,100996.91
2018-07-04T20:13:06.446Z,100985.48
2018-07-04T20:16:47.805Z,100994.44
2018-07-04T20:20:29.437Z,100983.33
2018-07-04T20:24:10.808Z,100982.82
2018-07-04T20:27:52.056Z,100981.17
2018-07-04T20:31:33.535Z,100979.53
2018-07-04T20:35:15.645Z,100978.92
2018-07-04T20:38:58.018Z,100982.95
2018-07-04T20:42:39.492Z,100976.82
2018-07-04T20:46:20.846Z,100970.53
2018-07-04T20:50:02.123Z,100986.88
2018-07-04T20:53:43.854Z,100984.85
2018-07-04T20:57:19.223Z,100979.94
2018-07-04T21:01:00.539Z,100970.61
2018-07-04T21:04:41.925Z,100970.59
2018-07-04T21:08:23.412Z,100983.59
2018-07-04T21:12:04.674Z,100991.27
2018-07-04T21:15:45.906Z,100995.88
2018-07-04T21:19:27.554Z,101003.06
2018-07-04T21:23:09.195Z,101015.38
2018-07-04T21:26:50.875Z,101019.16
2018-07-04T21:30:32.267Z,101030.19
2018-07-04T21:34:13.768Z,101034.89
2018-07-04T21:37:55.141Z,101052.72
2018-07-04T21:41:36.553Z,101049.72
2018-07-04T21:45:17.867Z,101064.02
2018-07-04T21:48:59.245Z,101057.72
2018-07-04T21:52:40.703Z,101056.11
2018-07-04T21:56:22.130Z,101055.42
2018-07-04T22:00:03.530Z,101053.61
2018-07-04T22:03:44.927Z,101051.05
2018-07-04T22:07:26.378Z,101050.22
2018-07-04T22:11:07.851Z,101051.63
2018-07-04T22:14:49.196Z,101051.63
2018-07-04T22:18:30.702Z,101061.59
2018-07-04T22:22:11.913Z,101061.42
2018-07-04T22:25:53.327Z,101066.52
2018-07-04T22:29:34.634Z,101063.23
2018-07-04T22:33:15.998Z,101056.34
2018-07-04T22:36:57.478Z,101066.53
2018-07-04T22:40:38.846Z,101054.13
2018-07-04T22:44:20.543Z,101051.33
2018-07-04T22:48:01.928Z,101057.08
2018-07-04T22:51:43.206Z,101057.33
2018-07-04T22:55:24.520Z,101057.56
2018-07-04T22:59:05.829Z,101055.42
2018-07-04T23:02:47.196Z,101057.47
2018-07-04T23:06:28.688Z,101054.75
2018-07-04T23:10:10.001Z,101039.84
2018-07-04T23:13:51.500Z,101038.33
2018-07-04T23:17:33.088Z,101038.84
2018-07-04T23:21:14.579Z,101033.53
2018-07-04T23:24:55.939Z,101033.75
2018-07-04T23:28:37.280Z,101028.25
2018-07-04T23:32:18.508Z,101028.12
2018-07-04T23:35:59.802Z,101029.70
2018-07-04T23:39:40.995Z,101029.55
2018-07-04T23:43:22.286Z,101024.03
2018-07-04T23:47:03.675Z,101029.28
2018-07-04T23:50:45.043Z,101028.64
2018-07-04T23:54:26.416Z,101023.33
2018-07-04T23:58:07.775Z,101024.26
